Time;durP1;ratioP1;P1;durP2;ratioP2;P2;SDS_P1;SDS_P2;PMS_P1;PMS_P2;Temp;Humidity;BMP_temperature;BMP_pressure;BME280_temperature;BME280_humidity;BME280_pressure;Samples;Min_cycle;Max_cycle;Signal;HPM_P1;HPM_P2
2024/03/21 00:00:10;;;;;;;8.70;3.70;;;;;;;7.15;64.84;100918.35;105221;1254;61289;-60
2024/03/21 00:02:38;;;;;;;13.00;5.20;;;;;;;7.08;64.94;100920.50;105147;1254;64443;-59
2024/03/21 00:05:07;;;;;;;9.10;4.00;;;;;;;7.03;64.95;100921.98;105536;1254;61196;-59
2024/03/21 00:07:34;;;;;;;13.00;4.90;;;;;;;6.98;64.99;100921.23;105561;1260;64252;-58
2024/03/21 00:10:03;;;;;;;11.70;4.70;;;;;;;6.92;65.18;100923.99;105259;1254;61273;-58
2024/03/21 00:12:30;;;;;;;10.30;4.90;;;;;;;6.93;65.16;100923.97;105151;1260;61330;-60
2024/03/21 00:14:58;;;;;;;15.80;6.00;;;;;;;7.00;65.04;100924.08;105109;1254;65744;-59
2024/03/21 00:17:26;;;;;;;11.50;4.70;;;;;;;7.07;64.90;100921.41;104925;1254;61509;-61
2024/03/21 00:19:54;;;;;;;8.90;4.10;;;;;;;7.09;64.82;100923.90;105688;1254;66397;-60
2024/03/21 00:22:22;;;;;;;10.80;4.10;;;;;;;7.07;64.87;100921.03;105270;1254;61374;-60
2024/03/21 00:24:49;;;;;;;9.70;4.90;;;;;;;7.02;64.78;100918.56;106903;1254;61193;-61
2024/03/21 00:27:17;;;;;;;10.00;4.10;;;;;;;6.95;64.76;100921.23;105220;1253;65692;-60
2024/03/21 00:29:44;;;;;;;9.10;3.80;;;;;;;6.86;64.75;100921.55;105191;1257;61572;-60
2024/03/21 00:32:11;;;;;;;13.10;4.40;;;;;;;6.81;64.77;100918.88;105046;1254;63665;-59
2024/03/21 00:34:40;;;;;;;9.70;4.70;;;;;;;6.84;64.71;100920.61;105383;1253;61349;-59
2024/03/21 00:37:08;;;;;;;9.30;4.10;;;;;;;6.91;64.70;100923.02;105507;1254;61128;-61
2024/03/21 00:39:35;;;;;;;9.40;3.40;;;;;;;6.93;64.64;100924.48;105216;1254;65719;-60
2024/03/21 00:42:04;;;;;;;13.40;3.80;;;;;;;6.93;64.65;100924.98;105702;1254;61615;-60
2024/03/21 00:47:32;;;;;;;9.80;4.10;;;;;;;6.49;65.64;100926.67;102852;1289;600463;-61
2024/03/21 00:50:00;;;;;;;10.20;4.30;;;;;;;6.77;64.67;100922.73;104948;1267;61003;-60
2024/03/21 00:52:27;;;;;;;7.20;2.10;;;;;;;6.83;64.36;100919.27;104183;1271;59693;-61
2024/03/21 00:54:55;;;;;;;9.50;3.30;;;;;;;6.84;64.24;100918.15;104362;1270;62853;-59
2024/03/21 00:57:23;;;;;;;7.80;3.40;;;;;;;6.81;64.25;100913.65;104211;1270;61347;-59
2024/03/21 00:59:51;;;;;;;8.00;3.50;;;;;;;6.79;64.27;100914.11;104282;1270;63779;-61
2024/03/21 01:02:18;;;;;;;10.50;4.00;;;;;;;6.75;64.30;100913.92;104339;1264;245480;-61
2024/03/21 01:04:50;;;;;;;8.70;3.00;;;;;;;6.70;64.31;100914.89;104378;1270;59726;-63
2024/03/21 01:07:20;;;;;;;9.10;4.10;;;;;;;6.65;64.23;100916.59;104929;1270;64205;-63
2024/03/21 01:09:48;;;;;;;13.90;3.10;;;;;;;6.59;64.30;100910.84;104501;1270;61379;-62
2024/03/21 01:12:15;;;;;;;9.90;3.60;;;;;;;6.54;64.51;100910.42;104252;1269;64342;-61
2024/03/21 01:14:43;;;;;;;11.50;2.90;;;;;;;6.55;64.34;100913.15;104490;1267;60474;-60
2024/03/21 01:17:11;;;;;;;8.80;3.10;;;;;;;6.59;64.30;100911.72;104539;1270;60352;-60
2024/03/21 01:19:39;;;;;;;8.60;3.40;;;;;;;6.63;64.31;100913.20;104646;1270;63726;-61
2024/03/21 01:22:06;;;;;;;5.20;1.80;;;;;;;6.70;64.28;100911.09;104645;1265;61305;-61
2024/03/21 01:24:37;;;;;;;7.80;3.10;;;;;;;6.74;64.09;100910.55;104415;1267;63809;-60
2024/03/21 01:27:05;;;;;;;7.50;3.30;;;;;;;6.77;64.14;100910.36;104295;1270;60677;-61
2024/03/21 01:29:33;;;;;;;9.70;3.50;;;;;;;6.80;64.17;100906.52;105179;1263;60406;-61
2024/03/21 01:32:00;;;;;;;7.10;2.70;;;;;;;6.79;63.90;100907.96;104337;1263;65506;-61
2024/03/21 01:34:28;;;;;;;6.90;3.30;;;;;;;6.74;63.80;100907.39;104466;1267;61372;-60
2024/03/21 01:36:57;;;;;;;9.60;3.00;;;;;;;6.69;63.74;100905.40;104477;1267;63820;-60
2024/03/21 01:39:24;;;;;;;7.20;3.00;;;;;;;6.66;63.71;100906.95;105032;1267;62907;-63
2024/03/21 01:41:52;;;;;;;8.00;3.60;;;;;;;6.60;63.71;100909.91;104318;1270;60467;-62
2024/03/21 01:44:19;;;;;;;21.80;6.20;;;;;;;6.56;63.51;100906.30;104562;1270;64899;-62
2024/03/21 01:46:47;;;;;;;8.10;2.80;;;;;;;6.54;63.35;100907.80;104319;1271;62102;-60
2024/03/21 01:49:14;;;;;;;6.60;2.60;;;;;;;6.56;63.44;100909.80;104205;1267;64159;-61
2024/03/21 01:51:44;;;;;;;8.00;2.20;;;;;;;6.58;63.55;100912.30;104188;1266;60550;-61
2024/03/21 01:54:12;;;;;;;14.80;3.40;;;;;;;6.58;63.41;100911.59;104499;1267;60489;-61
2024/03/21 01:56:40;;;;;;;8.50;3.40;;;;;;;6.55;63.50;100911.74;104482;1267;64976;-60
2024/03/21 01:59:07;;;;;;;8.10;3.70;;;;;;;6.49;63.45;100910.29;104821;1267;61840;-62
2024/03/21 02:01:36;;;;;;;11.00;3.80;;;;;;;6.41;63.45;100911.78;104653;1266;63772;-61
2024/03/21 02:04:04;;;;;;;9.30;3.60;;;;;;;6.32;63.56;100915.23;105645;1266;60512;-62
2024/03/21 02:06:33;;;;;;;7.20;2.40;;;;;;;6.22;63.68;100915.08;104967;1268;62808;-61
2024/03/21 02:09:02;;;;;;;11.10;3.00;;;;;;;6.19;63.68;100916.13;104639;1267;65369;-60
2024/03/21 02:11:29;;;;;;;8.40;3.50;;;;;;;6.19;63.74;100917.35;104594;1266;63877;-60
2024/03/21 02:13:57;;;;;;;6.90;3.40;;;;;;;6.21;63.92;100916.02;104394;1267;64647;-62
2024/03/21 02:16:24;;;;;;;8.20;3.70;;;;;;;6.28;64.09;100914.59;104328;1265;60632;-61
2024/03/21 02:18:52;;;;;;;8.70;3.80;;;;;;;6.36;64.16;100914.52;104330;1266;60550;-59
2024/03/21 02:24:06;;;;;;;7.70;3.20;;;;;;;6.47;64.11;100917.02;105198;1262;60096;-60
2024/03/21 02:26:34;;;;;;;10.30;4.90;;;;;;;6.47;64.02;100917.59;104862;1257;63750;-60
2024/03/21 02:29:04;;;;;;;11.00;4.20;;;;;;;6.43;64.00;100918.98;104757;1260;60566;-57
2024/03/21 02:31:32;;;;;;;8.30;4.40;;;;;;;6.45;63.95;100918.36;105016;1258;60338;-60
2024/03/21 02:33:59;;;;;;;10.70;3.90;;;;;;;6.50;63.78;100918.08;105007;1258;63918;-60
2024/03/21 02:36:27;;;;;;;12.40;4.30;;;;;;;6.55;63.77;100917.35;104943;1258;61971;-59
2024/03/21 02:38:55;;;;;;;10.50;4.20;;;;;;;6.56;63.80;100918.51;104946;1257;71756;-59
2024/03/21 02:41:23;;;;;;;8.90;3.90;;;;;;;6.54;63.83;100920.16;106514;1259;60885;-59
2024/03/21 02:43:51;;;;;;;8.80;3.60;;;;;;;6.49;63.83;100917.65;104882;1262;59852;-60
2024/03/21 02:46:20;;;;;;;7.40;3.40;;;;;;;6.47;63.88;100916.88;104887;1257;63705;-59
2024/03/21 02:48:50;;;;;;;8.00;3.00;;;;;;;6.49;63.78;100917.62;104722;1263;61470;-59
2024/03/21 02:51:18;;;;;;;11.40;3.80;;;;;;;6.50;63.73;100922.66;104934;1259;64326;-59
2024/03/21 02:53:45;;;;;;;7.70;3.30;;;;;;;6.45;63.81;100920.30;104961;1257;60480;-57
2024/03/21 02:56:13;;;;;;;7.20;3.00;;;;;;;6.37;63.95;100919.52;104833;1263;60635;-57
2024/03/21 02:58:40;;;;;;;8.40;3.70;;;;;;;6.29;63.94;100919.56;105245;1254;63642;-60
2024/03/21 03:01:08;;;;;;;11.90;4.00;;;;;;;6.22;64.07;100919.80;105633;1253;61503;-59
2024/03/21 03:03:35;;;;;;;24.60;5.00;;;;;;;6.14;64.14;100924.39;105037;1253;64199;-57
2024/03/21 03:06:03;;;;;;;8.90;2.50;;;;;;;6.10;64.14;100926.66;105186;1255;61312;-61
2024/03/21 03:08:31;;;;;;;8.10;3.30;;;;;;;6.13;64.11;100928.96;105593;1255;60422;-60
2024/03/21 03:10:58;;;;;;;12.80;3.00;;;;;;;6.15;64.14;100931.64;105217;1257;63609;-60
2024/03/21 03:13:26;;;;;;;8.60;4.50;;;;;;;6.20;64.15;100938.75;105125;1259;61687;-60
2024/03/21 03:15:54;;;;;;;8.80;3.60;;;;;;;6.24;64.19;100939.39;105188;1257;62416;-61
2024/03/21 03:18:21;;;;;;;9.30;3.60;;;;;;;6.25;64.22;100937.40;105154;1258;60443;-60
2024/03/21 03:20:49;;;;;;;8.90;4.00;;;;;;;6.23;64.27;100940.11;105289;1256;60396;-59
2024/03/21 03:23:16;;;;;;;8.90;2.90;;;;;;;6.20;64.38;100945.50;105063;1254;65519;-59
2024/03/21 03:25:44;;;;;;;9.60;2.50;;;;;;;6.17;64.37;100945.67;105308;1254;61289;-60
2024/03/21 03:28:11;;;;;;;11.10;4.10;;;;;;;6.14;64.40;100949.46;105108;1254;62914;-62
2024/03/21 03:30:39;;;;;;;13.20;4.50;;;;;;;6.15;64.45;100955.34;106396;1254;60426;-60
2024/03/21 03:35:33;;;;;;;8.10;3.20;;;;;;;6.21;64.24;100958.86;105150;1258;60423;-59
2024/03/21 03:35:54;;;;;;;13.50;4.50;;;;;;;6.23;64.15;100958.21;105177;1254;63778;-62
2024/03/21 03:38:21;;;;;;;8.30;4.20;;;;;;;6.23;64.31;100961.38;105276;1259;61600;-61
2024/03/21 03:40:49;;;;;;;7.40;3.90;;;;;;;6.18;64.42;100962.52;105265;1253;63737;-61
2024/03/21 03:43:17;;;;;;;7.40;2.90;;;;;;;6.12;64.50;100964.72;105128;1253;60502;-59
2024/03/21 03:45:44;;;;;;;9.60;3.40;;;;;;;6.05;64.55;100966.13;105373;1254;60478;-59
2024/03/21 03:48:12;;;;;;;10.20;4.50;;;;;;;5.98;64.64;100968.38;105195;1254;64972;-60
2024/03/21 03:50:39;;;;;;;7.10;3.10;;;;;;;5.94;64.69;100971.02;105352;1258;61497;-60
2024/03/21 03:53:07;;;;;;;6.60;3.00;;;;;;;5.94;64.64;100972.43;105229;1256;63714;-60
2024/03/21 03:55:34;;;;;;;11.30;4.10;;;;;;;5.96;64.72;100973.20;105173;1254;60515;-60
2024/03/21 03:58:03;;;;;;;9.10;5.00;;;;;;;6.02;64.81;100976.21;105097;1258;60348;-60
2024/03/21 04:00:30;;;;;;;11.80;3.90;;;;;;;6.06;64.86;100979.16;105499;1253;63684;-60
2024/03/21 04:02:58;;;;;;;8.60;4.30;;;;;;;6.08;64.88;100981.48;104889;1253;61470;-55
2024/03/21 04:05:26;;;;;;;10.20;4.20;;;;;;;6.09;64.96;100980.39;105178;1253;63525;-60
2024/03/21 04:07:54;;;;;;;9.30;4.10;;;;;;;6.10;64.92;100979.98;105272;1254;60870;-60
2024/03/21 04:10:21;;;;;;;8.50;4.90;;;;;;;6.13;64.71;100980.31;105429;1254;60463;-60
2024/03/21 04:12:50;;;;;;;11.40;4.40;;;;;;;6.20;64.43;100982.63;105087;1254;63975;-59
2024/03/21 04:15:18;;;;;;;10.00;4.00;;;;;;;6.24;64.36;100986.07;105220;1258;61910;-58
2024/03/21 04:17:45;;;;;;;12.00;4.50;;;;;;;6.23;64.46;100988.20;104937;1254;63829;-59
2024/03/21 04:20:13;;;;;;;7.30;3.90;;;;;;;6.24;64.54;100993.23;105177;1259;60466;-58
2024/03/21 04:22:40;;;;;;;8.90;3.80;;;;;;;6.21;64.46;100998.07;105243;1258;60473;-59
2024/03/21 04:25:08;;;;;;;9.90;4.30;;;;;;;6.13;64.42;100995.85;105110;1258;65195;-59
2024/03/21 04:27:35;;;;;;;8.40;4.20;;;;;;;6.07;64.38;100995.11;105750;1254;60461;-59
2024/03/21 04:30:03;;;;;;;11.00;4.00;;;;;;;6.08;64.32;100998.03;105067;1254;63752;-59
2024/03/21 04:32:31;;;;;;;8.80;4.00;;;;;;;6.10;64.22;101000.55;105825;1254;60587;-57
2024/03/21 04:35:02;;;;;;;6.40;2.70;;;;;;;6.11;64.19;101001.20;105213;1257;60454;-58
2024/03/21 04:37:32;;;;;;;11.70;4.50;;;;;;;6.12;64.23;100998.19;105209;1253;65323;-57
2024/03/21 04:39:59;;;;;;;10.70;4.90;;;;;;;6.12;64.31;100998.38;105207;1253;61413;-58
2024/03/21 04:42:32;;;;;;;16.50;4.80;;;;;;;6.09;64.33;101001.80;105078;1256;62613;-58
2024/03/21 04:45:02;;;;;;;12.00;4.60;;;;;;;6.07;64.36;101003.28;105647;1256;60614;-58
2024/03/21 04:47:30;;;;;;;14.80;6.30;;;;;;;6.08;64.20;101006.70;105696;1254;60359;-58
2024/03/21 04:49:58;;;;;;;12.90;5.20;;;;;;;6.10;64.06;101007.15;105206;1253;64888;-58
2024/03/21 04:52:27;;;;;;;10.40;3.80;;;;;;;6.13;64.11;101008.23;105138;1253;62549;-58
2024/03/21 04:54:55;;;;;;;9.00;3.50;;;;;;;6.15;64.02;101006.38;105940;1254;63812;-58
2024/03/21 04:57:22;;;;;;;9.60;4.00;;;;;;;6.14;64.01;101010.60;105351;1253;61280;-59
2024/03/21 04:59:53;;;;;;;14.60;4.30;;;;;;;6.10;64.12;101009.95;105110;1260;61186;-62
2024/03/21 05:02:21;;;;;;;11.50;5.00;;;;;;;6.05;64.13;101007.59;106028;1254;68206;-59
2024/03/21 05:04:48;;;;;;;12.30;4.60;;;;;;;5.98;64.16;101008.80;105115;1254;61293;-60
2024/03/21 05:07:16;;;;;;;9.30;4.00;;;;;;;5.92;64.33;101006.30;105163;1258;63889;-58
2024/03/21 05:09:43;;;;;;;11.00;4.70;;;;;;;5.91;64.26;101007.23;105028;1258;62114;-58
2024/03/21 05:12:11;;;;;;;12.60;4.80;;;;;;;5.91;64.20;101008.95;105029;1260;61184;-56
2024/03/21 05:14:40;;;;;;;13.50;4.80;;;;;;;5.91;64.23;101011.91;105139;1257;65998;-59
2024/03/21 05:17:09;;;;;;;14.40;4.50;;;;;;;5.93;64.29;101012.86;105017;1254;61423;-59
2024/03/21 05:19:37;;;;;;;11.50;4.70;;;;;;;5.94;64.36;101010.71;105054;1258;63665;-59
2024/03/21 05:22:05;;;;;;;10.20;3.90;;;;;;;5.92;64.46;101010.98;105405;1255;61337;-60
2024/03/21 05:24:32;;;;;;;11.80;5.00;;;;;;;5.86;64.51;101012.70;107447;1256;61315;-59
2024/03/21 05:27:02;;;;;;;9.90;4.20;;;;;;;5.82;64.51;101016.04;105014;1255;64453;-59
2024/03/21 05:29:30;;;;;;;10.10;5.10;;;;;;;5.80;64.67;101022.42;109008;1253;60333;-58
2024/03/21 05:31:57;;;;;;;7.80;4.80;;;;;;;5.80;64.69;101027.30;105646;1255;63753;-58
2024/03/21 05:34:24;;;;;;;9.40;4.80;;;;;;;5.83;64.53;101023.11;105048;1259;61294;-58
2024/03/21 05:36:52;;;;;;;9.90;5.40;;;;;;;5.88;64.62;101024.98;105144;1253;61365;-58
2024/03/21 05:39:20;;;;;;;10.50;5.20;;;;;;;5.93;64.59;101025.41;105309;1258;65731;-55
2024/03/21 05:41:47;;;;;;;18.20;5.50;;;;;;;5.96;64.61;101027.71;105141;1258;61256;-65
2024/03/21 05:44:15;;;;;;;12.70;5.10;;;;;;;5.99;64.63;101031.27;105052;1256;64445;-60
2024/03/21 05:46:42;;;;;;;7.30;4.30;;;;;;;6.00;64.63;101034.48;105191;1254;61337;-57
2024/03/21 05:49:12;;;;;;;11.00;5.50;;;;;;;5.98;64.64;101039.13;104795;1258;61153;-56
2024/03/21 05:51:39;;;;;;;13.00;5.20;;;;;;;5.98;64.53;101041.92;109218;1253;64498;-58
2024/03/21 05:54:09;;;;;;;10.60;4.30;;;;;;;6.03;64.43;101043.23;109091;1253;61588;-54
2024/03/21 05:56:36;;;;;;;13.40;5.70;;;;;;;6.08;64.40;101041.90;109095;1253;62472;-63
2024/03/21 05:59:04;;;;;;;13.00;6.90;;;;;;;6.13;64.49;101042.86;109203;1253;59343;-63
2024/03/21 06:01:34;;;;;;;10.70;4.80;;;;;;;6.19;64.54;101041.92;109174;1253;59270;-62
2024/03/21 06:04:08;;;;;;;18.00;7.10;;;;;;;6.21;64.45;101044.26;108055;1254;75686;-65
2024/03/21 06:06:36;;;;;;;10.50;5.50;;;;;;;6.30;64.49;101044.81;105644;1253;72702;-60
2024/03/21 06:09:06;;;;;;;11.60;5.00;;;;;;;6.43;64.37;101042.56;105190;1253;63868;-60
2024/03/21 06:11:35;;;;;;;10.50;5.80;;;;;;;6.56;64.21;101045.58;106217;1254;61431;-59
2024/03/21 06:14:03;;;;;;;11.20;5.20;;;;;;;6.62;64.10;101050.13;105172;1253;61270;-60
2024/03/21 06:16:32;;;;;;;12.50;7.00;;;;;;;6.63;63.87;101049.20;105812;1255;65773;-59
2024/03/21 06:18:59;;;;;;;13.70;5.70;;;;;;;6.63;63.98;101051.29;105653;1253;62334;-61
2024/03/21 06:21:27;;;;;;;13.40;6.60;;;;;;;6.64;64.01;101051.40;105111;1253;62479;-63
2024/03/21 06:23:54;;;;;;;13.40;4.90;;;;;;;6.71;63.81;101052.41;105323;1255;61398;-61
2024/03/21 06:26:22;;;;;;;12.60;6.00;;;;;;;6.80;63.69;101050.04;105266;1258;61181;-60
2024/03/21 06:28:54;;;;;;;13.80;4.00;;;;;;;6.90;63.78;101050.39;105326;1253;68067;-57
2024/03/21 06:31:22;;;;;;;9.90;5.40;;;;;;;6.93;63.67;101050.05;105152;1253;62465;-60
2024/03/21 06:33:50;;;;;;;9.40;4.60;;;;;;;6.95;63.67;101048.35;105320;1254;63678;-58
2024/03/21 06:36:17;;;;;;;10.80;6.00;;;;;;;6.95;63.49;101048.18;105226;1253;61312;-59
2024/03/21 06:38:45;;;;;;;14.40;6.80;;;;;;;6.98;63.52;101052.59;105075;1253;61350;-59
2024/03/21 06:41:13;;;;;;;12.60;4.90;;;;;;;7.05;63.27;101051.66;105090;1254;64987;-65
2024/03/21 06:43:40;;;;;;;14.30;5.40;;;;;;;7.14;63.03;101052.23;105006;1253;61520;-63
2024/03/21 06:46:09;;;;;;;17.00;6.80;;;;;;;7.22;62.98;101050.88;106617;1257;66022;-61
2024/03/21 06:48:37;;;;;;;11.60;5.90;;;;;;;7.28;62.94;101050.23;106129;1256;61372;-64
2024/03/21 06:51:08;;;;;;;8.90;4.70;;;;;;;7.33;62.75;101053.60;106023;1257;62317;-70
2024/03/21 06:53:35;;;;;;;8.10;3.30;;;;;;;7.36;62.40;101053.98;106100;1256;65722;-68
2024/03/21 06:56:03;;;;;;;7.70;4.50;;;;;;;7.35;61.60;101054.57;106313;1257;61661;-62
2024/03/21 06:58:32;;;;;;;11.60;4.70;;;;;;;7.35;61.33;101056.14;106282;1253;66057;-62
2024/03/21 07:01:00;;;;;;;12.60;5.50;;;;;;;7.43;61.24;101056.89;106016;1253;61215;-65
2024/03/21 07:03:27;;;;;;;11.80;4.30;;;;;;;7.58;61.13;101059.40;105025;1257;62176;-71
2024/03/21 07:05:56;;;;;;;13.50;4.80;;;;;;;7.70;60.90;101055.76;106270;1253;67780;-64
2024/03/21 07:08:23;;;;;;;11.00;4.10;;;;;;;7.76;60.55;101054.86;106503;1257;61961;-66
2024/03/21 07:10:51;;;;;;;14.60;9.10;;;;;;;7.77;60.18;101057.05;106472;1255;62609;-65
2024/03/21 07:13:18;;;;;;;9.20;4.10;;;;;;;7.76;60.01;101058.73;106028;1257;61705;-63
2024/03/21 07:15:46;;;;;;;10.40;4.30;;;;;;;7.75;59.93;101059.98;106147;1253;61292;-62
2024/03/21 07:18:14;;;;;;;11.30;3.80;;;;;;;7.81;59.83;101063.83;106065;1256;75578;-65
2024/03/21 07:20:41;;;;;;;12.30;5.40;;;;;;;7.89;59.62;101067.40;106084;1253;72551;-67
2024/03/21 07:23:09;;;;;;;16.90;10.10;;;;;;;7.97;59.38;101069.71;106080;1253;65823;-69
2024/03/21 07:25:36;;;;;;;12.30;5.00;;;;;;;8.08;59.05;101072.63;106176;1253;61277;-63
2024/03/21 07:28:04;;;;;;;10.50;4.20;;;;;;;8.17;58.62;101072.21;106113;1253;61231;-68
2024/03/21 07:30:31;;;;;;;15.90;6.10;;;;;;;8.25;58.30;101075.77;106158;1253;65055;-66
2024/03/21 07:32:59;;;;;;;14.20;9.50;;;;;;;8.30;57.85;101075.66;106164;1253;64105;-69
2024/03/21 07:35:27;;;;;;;8.80;4.00;;;;;;;8.33;57.88;101076.02;105634;1254;73398;-57
2024/03/21 07:37:57;;;;;;;9.60;4.30;;;;;;;8.34;57.69;101075.58;105160;1253;61232;-57
2024/03/21 07:40:24;;;;;;;18.00;9.80;;;;;;;8.42;57.64;101078.83;105236;1252;61230;-58
2024/03/21 07:42:54;;;;;;;8.70;4.70;;;;;;;8.54;57.35;101082.33;105890;1253;76928;-59
2024/03/21 07:45:23;;;;;;;17.60;9.90;;;;;;;8.63;57.36;101081.41;105188;1253;71025;-57
2024/03/21 07:47:53;;;;;;;10.00;4.70;;;;;;;8.69;57.10;101088.22;106070;1253;75236;-60
2024/03/21 07:50:22;;;;;;;12.70;5.50;;;;;;;8.72;56.86;101085.41;105170;1252;61271;-62
2024/03/21 07:52:49;;;;;;;9.50;4.50;;;;;;;8.76;57.08;101084.83;105375;1253;62281;-58
2024/03/21 07:55:17;;;;;;;13.70;9.60;;;;;;;8.82;56.93;101084.48;106959;1253;77000;-59
2024/03/21 07:57:45;;;;;;;10.40;5.90;;;;;;;8.92;56.97;101083.17;109000;1252;61752;-60
2024/03/21 08:00:13;;;;;;;10.60;4.30;;;;;;;9.05;57.01;101084.61;109137;1253;64580;-59
2024/03/21 08:02:40;;;;;;;19.10;9.50;;;;;;;9.24;56.53;101086.80;109176;1253;59696;-58
2024/03/21 08:05:08;;;;;;;13.60;5.30;;;;;;;9.32;55.75;101083.43;107252;1254;61138;-57
2024/03/21 08:07:36;;;;;;;17.10;10.00;;;;;;;9.35;55.64;101084.82;105800;1256;66459;-58
2024/03/21 08:10:04;;;;;;;16.10;4.40;;;;;;;9.38;55.26;101087.98;107451;1253;72732;-57
2024/03/21 08:12:31;;;;;;;18.90;10.60;;;;;;;9.41;55.20;101088.10;105735;1254;74900;-58
2024/03/21 08:14:59;;;;;;;15.20;6.10;;;;;;;9.43;54.54;101087.31;105096;1253;61232;-59
2024/03/21 08:17:26;;;;;;;16.80;10.00;;;;;;;9.41;54.44;101090.05;105155;1254;61281;-55
2024/03/21 08:19:56;;;;;;;11.70;5.80;;;;;;;9.39;54.51;101089.82;105196;1253;66614;-57
2024/03/21 08:22:23;;;;;;;17.20;10.90;;;;;;;9.40;54.90;101092.75;105285;1254;72642;-64
2024/03/21 08:24:51;;;;;;;8.80;4.80;;;;;;;9.43;54.69;101094.30;105128;1256;74939;-62
2024/03/21 08:27:19;;;;;;;17.10;9.20;;;;;;;9.51;54.45;101094.49;105355;1257;61376;-56
2024/03/21 08:29:53;;;;;;;18.70;4.70;;;;;;;9.62;54.31;101091.72;105238;1253;61316;-73
2024/03/21 08:32:21;;;;;;;15.90;10.50;;;;;;;9.69;54.25;101095.48;105075;1258;64545;-69
2024/03/21 08:34:49;;;;;;;10.00;5.30;;;;;;;9.71;53.98;101097.60;105839;1253;62474;-68
2024/03/21 08:37:17;;;;;;;17.40;10.40;;;;;;;9.76;54.29;101094.48;106098;1254;75211;-66
2024/03/21 08:39:44;;;;;;;11.00;5.10;;;;;;;9.80;54.19;101095.29;106046;1253;61274;-67
2024/03/21 08:42:12;;;;;;;14.00;10.10;;;;;;;9.82;53.91;101095.29;106173;1253;61140;-68
2024/03/21 08:44:39;;;;;;;17.80;5.00;;;;;;;9.85;54.00;101093.54;106088;1253;64836;-68
2024/03/21 08:47:07;;;;;;;20.30;12.10;;;;;;;9.88;54.03;101089.52;106078;1259;61211;-66
2024/03/21 08:49:34;;;;;;;15.20;5.90;;;;;;;9.93;54.09;101094.23;106034;1253;64185;-70
2024/03/21 08:52:02;;;;;;;15.20;10.30;;;;;;;10.04;53.53;101091.57;106049;1253;63069;-70
2024/03/21 08:54:30;;;;;;;11.20;5.40;;;;;;;10.18;53.47;101095.89;106182;1253;61370;-65
2024/03/21 08:56:57;;;;;;;16.00;10.50;;;;;;;10.25;53.19;101094.55;105351;1253;68429;-70
2024/03/21 08:59:25;;;;;;;13.00;4.80;;;;;;;10.30;52.99;101098.14;105318;1253;61292;-67
2024/03/21 09:01:52;;;;;;;16.80;10.60;;;;;;;10.34;53.13;101097.52;105091;1260;74912;-68
2024/03/21 09:04:20;;;;;;;15.70;6.40;;;;;;;10.40;53.08;101094.83;105085;1253;61381;-63
2024/03/21 09:06:48;;;;;;;18.70;11.00;;;;;;;10.47;53.07;101093.81;105044;1253;62123;-67
2024/03/21 09:09:16;;;;;;;17.20;11.00;;;;;;;10.54;53.06;101090.16;105138;1258;74457;-66
2024/03/21 09:11:44;;;;;;;8.90;4.70;;;;;;;10.62;52.60;101090.02;105115;1252;62000;-69
2024/03/21 09:14:11;;;;;;;17.50;11.20;;;;;;;10.69;52.24;101089.91;106195;1253;65992;-68
2024/03/21 09:16:39;;;;;;;19.50;5.80;;;;;;;10.77;52.13;101089.66;105230;1253;61290;-65
2024/03/21 09:19:07;;;;;;;16.30;10.50;;;;;;;10.84;51.86;101084.43;105203;1253;61152;-67
2024/03/21 09:21:34;;;;;;;15.80;11.00;;;;;;;10.89;51.92;101089.01;105693;1255;76992;-57
2024/03/21 09:24:03;;;;;;;14.60;10.60;;;;;;;10.95;51.98;101087.91;105744;1252;61356;-59
2024/03/21 09:26:31;;;;;;;16.00;10.00;;;;;;;11.01;51.06;101087.13;105252;1255;64298;-57
2024/03/21 09:28:59;;;;;;;9.30;4.20;;;;;;;11.02;50.38;101090.17;105763;1253;61267;-58
2024/03/21 09:31:27;;;;;;;18.10;11.20;;;;;;;11.04;50.52;101086.38;105290;1253;63080;-58
2024/03/21 09:33:54;;;;;;;18.20;11.80;;;;;;;11.04;50.22;101081.45;106862;1255;66399;-59
2024/03/21 09:36:22;;;;;;;10.20;5.40;;;;;;;11.02;50.03;101079.70;106038;1256;72625;-59
2024/03/21 09:38:49;;;;;;;20.50;12.10;;;;;;;11.02;50.04;101076.21;105302;1253;65044;-58
2024/03/21 09:41:17;;;;;;;14.90;10.20;;;;;;;11.02;49.95;101073.90;105005;1259;61331;-57
2024/03/21 09:43:44;;;;;;;9.30;4.80;;;;;;;11.02;49.93;101071.58;105243;1254;61385;-57
2024/03/21 09:46:16;;;;;;;16.30;11.40;;;;;;;11.04;49.69;101073.55;105084;1253;64842;-57
2024/03/21 09:48:44;;;;;;;12.80;5.30;;;;;;;11.09;49.81;101072.50;109035;1253;70154;-57
2024/03/21 09:51:21;;;;;;;16.00;10.40;;;;;;;11.17;49.27;101070.70;109068;1253;62936;-59
2024/03/21 09:53:48;;;;;;;16.70;10.40;;;;;;;11.27;49.28;101069.96;109236;1254;59314;-55
2024/03/21 09:56:16;;;;;;;17.70;10.10;;;;;;;11.39;49.06;101063.02;105516;1257;61280;-55
2024/03/21 09:58:45;;;;;;;24.10;11.30;;;;;;;11.52;48.95;101063.29;105432;1254;67888;-56
2024/03/21 10:01:23;;;;;;;16.40;9.90;;;;;;;11.65;48.25;101064.77;105616;1256;61158;-59
2024/03/21 10:03:55;;;;;;;19.10;11.70;;;;;;;11.73;47.92;101058.94;106149;1256;76720;-58
2024/03/21 10:06:24;;;;;;;16.60;11.30;;;;;;;11.81;48.11;101058.00;106060;1256;61376;-62
2024/03/21 10:08:53;;;;;;;18.80;11.30;;;;;;;11.91;47.65;101059.38;106191;1253;61295;-58
2024/03/21 10:11:20;;;;;;;16.50;10.10;;;;;;;12.01;47.45;101056.50;105267;1256;65898;-59
2024/03/21 10:13:49;;;;;;;16.70;10.30;;;;;;;12.14;47.09;101055.16;105366;1253;63853;-59
2024/03/21 10:16:20;;;;;;;18.40;10.60;;;;;;;12.26;46.31;101056.20;105147;1257;75301;-58
2024/03/21 10:18:47;;;;;;;18.60;10.60;;;;;;;12.35;46.32;101053.91;105250;1258;61190;-59
2024/03/21 10:21:19;;;;;;;20.70;10.40;;;;;;;12.45;45.99;101052.29;105214;1256;61293;-59
2024/03/21 10:23:46;;;;;;;18.00;10.60;;;;;;;12.54;45.70;101052.46;105241;1253;66922;-58
2024/03/21 10:26:15;;;;;;;13.60;9.80;;;;;;;12.65;45.95;101050.58;105388;1258;61350;-57
2024/03/21 10:28:46;;;;;;;17.10;9.70;;;;;;;12.73;45.44;101046.77;105427;1258;62601;-58
2024/03/21 10:31:14;;;;;;;20.60;10.40;;;;;;;12.78;44.54;101049.58;105082;1253;61358;-57
2024/03/21 10:33:44;;;;;;;17.70;10.20;;;;;;;12.79;44.65;101045.73;105531;1257;62228;-58
2024/03/21 10:36:13;;;;;;;21.00;10.80;;;;;;;12.85;44.68;101045.30;105608;1257;66087;-57
2024/03/21 10:38:41;;;;;;;17.20;9.90;;;;;;;12.91;43.70;101042.77;105652;1255;62448;-57
2024/03/21 10:41:14;;;;;;;21.30;9.50;;;;;;;12.92;43.67;101041.27;105540;1253;62596;-58
2024/03/21 10:43:42;;;;;;;23.80;10.80;;;;;;;12.99;43.84;101039.48;105633;1257;61596;-58
2024/03/21 10:46:10;;;;;;;19.00;9.60;;;;;;;13.08;43.59;101039.45;105696;1253;61333;-50
2024/03/21 10:48:39;;;;;;;19.30;9.20;;;;;;;13.17;43.06;101042.05;105532;1257;64847;-57
2024/03/21 10:51:19;;;;;;;19.20;7.90;;;;;;;13.23;42.13;101040.39;105760;1253;72623;-56
2024/03/21 10:54:00;;;;;;;17.80;7.60;;;;;;;13.27;42.15;101036.33;105284;1255;63862;-57
2024/03/21 10:56:35;;;;;;;17.30;8.10;;;;;;;13.36;41.73;101035.06;105948;1253;61267;-56
2024/03/21 10:59:03;;;;;;;17.10;7.50;;;;;;;13.44;41.40;101033.60;105809;1256;61156;-57
2024/03/21 11:01:35;;;;;;;18.50;8.70;;;;;;;13.50;40.79;101031.30;105876;1253;77266;-56
2024/03/21 11:04:06;;;;;;;22.40;8.70;;;;;;;13.51;40.48;101028.73;105789;1253;70263;-57
2024/03/21 11:06:34;;;;;;;16.70;8.30;;;;;;;13.53;40.80;101031.05;105283;1256;66183;-58
2024/03/21 11:09:02;;;;;;;14.30;7.70;;;;;;;13.62;40.95;101029.80;105846;1253;61160;-58
2024/03/21 11:11:30;;;;;;;15.30;7.90;;;;;;;13.72;40.31;101029.50;106524;1254;61266;-57
2024/03/21 11:14:02;;;;;;;15.00;8.10;;;;;;;13.83;40.42;101029.64;105270;1258;66773;-56
2024/03/21 11:16:29;;;;;;;12.70;7.20;;;;;;;13.97;40.18;101026.38;106692;1253;72922;-58
2024/03/21 11:18:57;;;;;;;19.20;7.40;;;;;;;14.05;39.82;101023.04;105356;1256;65986;-57
2024/03/21 11:21:25;;;;;;;21.00;8.10;;;;;;;14.11;39.67;101021.44;105847;1253;62296;-55
2024/03/21 11:23:53;;;;;;;13.70;7.70;;;;;;;14.17;39.88;101026.48;109294;1252;62270;-57
2024/03/21 11:26:20;;;;;;;17.80;6.60;;;;;;;14.24;39.73;101020.42;106833;1253;74667;-56